sensor_id;sensor_type;location;lat;lon;timestamp;P1;durP1;ratioP1;P2;durP2;ratioP2
60352;SDS011;46196;52.970;6.954;2022-09-24T00:01:07;25.50;;;19.77;;
60352;SDS011;46196;52.970;6.954;2022-09-24T00:03:34;25.65;;;20.48;;
60352;SDS011;46196;52.970;6.954;2022-09-24T00:06:01;24.02;;;20.00;;
60352;SDS011;46196;52.970;6.954;2022-09-24T00:08:28;26.27;;;21.35;;
60352;SDS011;46196;52.970;6.954;2022-09-24T00:10:53;26.52;;;20.45;;
60352;SDS011;46196;52.970;6.954;2022-09-24T00:13:21;25.17;;;20.90;;
60352;SDS011;46196;52.970;6.954;2022-09-24T00:15:48;26.30;;;21.40;;
60352;SDS011;46196;52.970;6.954;2022-09-24T00:18:15;25.83;;;21.33;;
60352;SDS011;46196;52.970;6.954;2022-09-24T00:20:42;24.63;;;21.45;;
60352;SDS011;46196;52.970;6.954;2022-09-24T00:23:08;28.65;;;22.15;;
60352;SDS011;46196;52.970;6.954;2022-09-24T00:25:45;29.15;;;23.25;;
60352;SDS011;46196;52.970;6.954;2022-09-24T00:28:30;27.70;;;22.20;;
60352;SDS011;46196;52.970;6.954;2022-09-24T00:30:57;28.52;;;22.00;;
60352;SDS011;46196;52.970;6.954;2022-09-24T00:33:27;30.42;;;23.55;;
60352;SDS011;46196;52.970;6.954;2022-09-24T00:36:00;30.00;;;23.17;;
60352;SDS011;46196;52.970;6.954;2022-09-24T00:38:29;30.15;;;23.67;;
60352;SDS011;46196;52.970;6.954;2022-09-24T00:40:59;28.90;;;23.25;;
60352;SDS011;46196;52.970;6.954;2022-09-24T00:43:30;31.25;;;24.05;;
60352;SDS011;46196;52.970;6.954;2022-09-24T00:48:46;32.00;;;24.52;;
60352;SDS011;46196;52.970;6.954;2022-09-24T00:51:18;32.07;;;25.10;;
60352;SDS011;46196;52.970;6.954;2022-09-24T00:53:48;29.13;;;23.35;;
60352;SDS011;46196;52.970;6.954;2022-09-24T00:56:17;34.08;;;25.40;;
60352;SDS011;46196;52.970;6.954;2022-09-24T00:58:45;31.58;;;25.77;;
60352;SDS011;46196;52.970;6.954;2022-09-24T01:01:16;31.52;;;24.83;;
60352;SDS011;46196;52.970;6.954;2022-09-24T01:03:43;31.98;;;24.95;;
60352;SDS011;46196;52.970;6.954;2022-09-24T01:06:11;33.17;;;24.88;;
60352;SDS011;46196;52.970;6.954;2022-09-24T01:08:37;31.13;;;22.60;;
60352;SDS011;46196;52.970;6.954;2022-09-24T01:21:53;31.50;;;25.00;;
60352;SDS011;46196;52.970;6.954;2022-09-24T01:27:36;31.40;;;24.15;;
60352;SDS011;46196;52.970;6.954;2022-09-24T01:30:23;30.38;;;24.23;;
60352;SDS011;46196;52.970;6.954;2022-09-24T01:33:02;30.35;;;23.52;;
60352;SDS011;46196;52.970;6.954;2022-09-24T01:35:36;32.75;;;25.48;;
60352;SDS011;46196;52.970;6.954;2022-09-24T01:38:15;30.77;;;24.95;;
60352;SDS011;46196;52.970;6.954;2022-09-24T01:40:57;31.45;;;23.85;;
60352;SDS011;46196;52.970;6.954;2022-09-24T01:43:26;31.65;;;24.27;;
60352;SDS011;46196;52.970;6.954;2022-09-24T01:45:54;31.33;;;24.20;;
60352;SDS011;46196;52.970;6.954;2022-09-24T01:48:23;30.15;;;23.55;;
60352;SDS011;46196;52.970;6.954;2022-09-24T01:54:16;26.95;;;20.10;;
60352;SDS011;46196;52.970;6.954;2022-09-24T01:59:15;29.58;;;21.60;;
60352;SDS011;46196;52.970;6.954;2022-09-24T02:01:52;31.17;;;24.90;;
60352;SDS011;46196;52.970;6.954;2022-09-24T02:04:25;31.83;;;25.00;;
60352;SDS011;46196;52.970;6.954;2022-09-24T02:06:55;27.67;;;22.52;;
60352;SDS011;46196;52.970;6.954;2022-09-24T02:09:36;32.38;;;24.63;;
60352;SDS011;46196;52.970;6.954;2022-09-24T02:12:05;32.92;;;23.83;;
60352;SDS011;46196;52.970;6.954;2022-09-24T02:14:31;34.92;;;25.45;;
60352;SDS011;46196;52.970;6.954;2022-09-24T02:17:03;28.95;;;22.70;;
60352;SDS011;46196;52.970;6.954;2022-09-24T02:19:31;32.42;;;22.83;;
60352;SDS011;46196;52.970;6.954;2022-09-24T02:22:00;30.33;;;24.90;;
60352;SDS011;46196;52.970;6.954;2022-09-24T02:24:31;29.38;;;22.38;;
60352;SDS011;46196;52.970;6.954;2022-09-24T02:27:03;30.38;;;23.35;;
60352;SDS011;46196;52.970;6.954;2022-09-24T02:29:29;32.65;;;24.13;;
60352;SDS011;46196;52.970;6.954;2022-09-24T02:31:55;34.92;;;24.60;;
60352;SDS011;46196;52.970;6.954;2022-09-24T02:34:28;34.15;;;25.45;;
60352;SDS011;46196;52.970;6.954;2022-09-24T02:36:59;30.77;;;23.27;;
60352;SDS011;46196;52.970;6.954;2022-09-24T02:39:29;37.05;;;26.27;;
60352;SDS011;46196;52.970;6.954;2022-09-24T02:41:55;33.15;;;24.13;;
60352;SDS011;46196;52.970;6.954;2022-09-24T02:44:22;37.25;;;26.38;;
60352;SDS011;46196;52.970;6.954;2022-09-24T02:46:48;31.67;;;23.70;;
60352;SDS011;46196;52.970;6.954;2022-09-24T02:49:15;32.28;;;24.50;;
60352;SDS011;46196;52.970;6.954;2022-09-24T02:51:41;34.45;;;25.67;;
60352;SDS011;46196;52.970;6.954;2022-09-24T02:54:08;30.13;;;23.15;;
60352;SDS011;46196;52.970;6.954;2022-09-24T02:56:34;33.75;;;25.33;;
60352;SDS011;46196;52.970;6.954;2022-09-24T02:59:01;34.80;;;25.60;;
60352;SDS011;46196;52.970;6.954;2022-09-24T03:01:27;31.17;;;24.02;;
60352;SDS011;46196;52.970;6.954;2022-09-24T03:03:53;30.67;;;23.65;;
60352;SDS011;46196;52.970;6.954;2022-09-24T03:06:19;34.25;;;25.02;;
60352;SDS011;46196;52.970;6.954;2022-09-24T03:08:45;34.17;;;24.83;;
60352;SDS011;46196;52.970;6.954;2022-09-24T03:11:11;31.67;;;23.63;;
60352;SDS011;46196;52.970;6.954;2022-09-24T03:13:37;35.35;;;23.98;;
60352;SDS011;46196;52.970;6.954;2022-09-24T03:16:03;34.10;;;25.40;;
60352;SDS011;46196;52.970;6.954;2022-09-24T03:18:30;32.10;;;23.60;;
60352;SDS011;46196;52.970;6.954;2022-09-24T03:21:00;32.95;;;24.77;;
60352;SDS011;46196;52.970;6.954;2022-09-24T03:23:32;31.45;;;24.40;;
60352;SDS011;46196;52.970;6.954;2022-09-24T03:25:59;35.45;;;24.08;;
60352;SDS011;46196;52.970;6.954;2022-09-24T03:28:25;31.42;;;24.50;;
60352;SDS011;46196;52.970;6.954;2022-09-24T03:30:51;34.90;;;25.48;;
60352;SDS011;46196;52.970;6.954;2022-09-24T03:35:59;32.85;;;25.15;;
60352;SDS011;46196;52.970;6.954;2022-09-24T03:38:26;32.88;;;22.48;;
60352;SDS011;46196;52.970;6.954;2022-09-24T03:40:53;34.65;;;23.67;;
60352;SDS011;46196;52.970;6.954;2022-09-24T03:43:20;36.05;;;24.50;;
60352;SDS011;46196;52.970;6.954;2022-09-24T03:45:46;33.95;;;24.25;;
60352;SDS011;46196;52.970;6.954;2022-09-24T03:48:13;32.65;;;24.65;;
60352;SDS011;46196;52.970;6.954;2022-09-24T03:50:39;36.50;;;25.50;;
60352;SDS011;46196;52.970;6.954;2022-09-24T03:53:05;34.22;;;25.05;;
60352;SDS011;46196;52.970;6.954;2022-09-24T03:55:31;34.72;;;24.35;;
60352;SDS011;46196;52.970;6.954;2022-09-24T03:57:57;38.10;;;26.40;;
60352;SDS011;46196;52.970;6.954;2022-09-24T04:00:22;34.38;;;23.55;;
60352;SDS011;46196;52.970;6.954;2022-09-24T04:02:48;36.03;;;24.58;;
60352;SDS011;46196;52.970;6.954;2022-09-24T04:05:15;32.53;;;23.77;;
60352;SDS011;46196;52.970;6.954;2022-09-24T04:07:41;29.17;;;22.77;;
60352;SDS011;46196;52.970;6.954;2022-09-24T04:10:08;32.92;;;23.25;;
60352;SDS011;46196;52.970;6.954;2022-09-24T04:12:34;33.22;;;24.63;;
60352;SDS011;46196;52.970;6.954;2022-09-24T04:15:00;31.48;;;23.70;;
60352;SDS011;46196;52.970;6.954;2022-09-24T04:17:29;32.53;;;22.95;;
60352;SDS011;46196;52.970;6.954;2022-09-24T04:19:56;27.58;;;22.20;;
60352;SDS011;46196;52.970;6.954;2022-09-24T04:22:22;35.25;;;24.13;;
60352;SDS011;46196;52.970;6.954;2022-09-24T04:24:50;34.55;;;24.25;;
60352;SDS011;46196;52.970;6.954;2022-09-24T04:27:16;32.33;;;23.95;;
60352;SDS011;46196;52.970;6.954;2022-09-24T04:29:43;33.13;;;24.33;;
60352;SDS011;46196;52.970;6.954;2022-09-24T04:32:08;32.78;;;23.75;;
60352;SDS011;46196;52.970;6.954;2022-09-24T04:34:34;34.72;;;24.23;;
60352;SDS011;46196;52.970;6.954;2022-09-24T04:37:00;32.25;;;23.65;;
60352;SDS011;46196;52.970;6.954;2022-09-24T04:39:25;32.50;;;23.70;;
60352;SDS011;46196;52.970;6.954;2022-09-24T04:41:54;35.75;;;24.58;;
60352;SDS011;46196;52.970;6.954;2022-09-24T04:44:20;32.03;;;24.37;;
60352;SDS011;46196;52.970;6.954;2022-09-24T04:46:47;32.40;;;25.13;;
60352;SDS011;46196;52.970;6.954;2022-09-24T04:49:13;33.55;;;24.83;;
60352;SDS011;46196;52.970;6.954;2022-09-24T04:51:39;37.10;;;25.52;;
60352;SDS011;46196;52.970;6.954;2022-09-24T04:54:05;36.03;;;24.95;;
60352;SDS011;46196;52.970;6.954;2022-09-24T04:56:33;35.97;;;25.38;;
60352;SDS011;46196;52.970;6.954;2022-09-24T04:58:59;37.17;;;24.98;;
60352;SDS011;46196;52.970;6.954;2022-09-24T05:01:24;33.60;;;25.00;;
60352;SDS011;46196;52.970;6.954;2022-09-24T05:03:50;34.28;;;25.58;;
60352;SDS011;46196;52.970;6.954;2022-09-24T05:06:17;37.72;;;25.50;;
60352;SDS011;46196;52.970;6.954;2022-09-24T05:08:43;31.52;;;23.13;;
60352;SDS011;46196;52.970;6.954;2022-09-24T05:11:09;38.83;;;26.55;;
60352;SDS011;46196;52.970;6.954;2022-09-24T05:13:34;36.72;;;23.92;;
60352;SDS011;46196;52.970;6.954;2022-09-24T05:16:01;34.60;;;24.58;;
60352;SDS011;46196;52.970;6.954;2022-09-24T05:18:27;37.10;;;24.38;;
60352;SDS011;46196;52.970;6.954;2022-09-24T05:20:53;35.67;;;23.90;;
60352;SDS011;46196;52.970;6.954;2022-09-24T05:23:18;34.30;;;24.52;;
60352;SDS011;46196;52.970;6.954;2022-09-24T05:25:44;32.33;;;24.70;;
60352;SDS011;46196;52.970;6.954;2022-09-24T05:28:29;35.63;;;25.85;;
60352;SDS011;46196;52.970;6.954;2022-09-24T05:30:57;31.05;;;23.48;;
60352;SDS011;46196;52.970;6.954;2022-09-24T05:33:24;34.15;;;25.67;;
60352;SDS011;46196;52.970;6.954;2022-09-24T05:35:53;33.50;;;23.98;;
60352;SDS011;46196;52.970;6.954;2022-09-24T05:40:45;34.42;;;24.10;;
60352;SDS011;46196;52.970;6.954;2022-09-24T05:43:14;32.25;;;23.27;;
60352;SDS011;46196;52.970;6.954;2022-09-24T05:45:43;34.17;;;24.73;;
60352;SDS011;46196;52.970;6.954;2022-09-24T05:48:09;36.45;;;25.00;;
60352;SDS011;46196;52.970;6.954;2022-09-24T05:50:35;35.45;;;24.95;;
60352;SDS011;46196;52.970;6.954;2022-09-24T05:53:01;35.42;;;25.30;;
60352;SDS011;46196;52.970;6.954;2022-09-24T05:55:29;34.80;;;23.83;;
60352;SDS011;46196;52.970;6.954;2022-09-24T05:57:54;35.67;;;26.08;;
60352;SDS011;46196;52.970;6.954;2022-09-24T06:00:25;32.90;;;24.67;;
60352;SDS011;46196;52.970;6.954;2022-09-24T06:02:51;37.28;;;25.58;;
60352;SDS011;46196;52.970;6.954;2022-09-24T06:05:17;34.83;;;25.08;;
60352;SDS011;46196;52.970;6.954;2022-09-24T06:07:42;34.50;;;26.55;;
60352;SDS011;46196;52.970;6.954;2022-09-24T06:10:08;34.97;;;24.65;;
60352;SDS011;46196;52.970;6.954;2022-09-24T06:12:35;33.88;;;24.10;;
60352;SDS011;46196;52.970;6.954;2022-09-24T06:15:01;33.22;;;24.48;;
60352;SDS011;46196;52.970;6.954;2022-09-24T06:17:27;32.65;;;24.98;;
60352;SDS011;46196;52.970;6.954;2022-09-24T06:19:53;33.78;;;24.38;;
60352;SDS011;46196;52.970;6.954;2022-09-24T06:22:19;31.98;;;24.08;;
60352;SDS011;46196;52.970;6.954;2022-09-24T06:24:45;34.85;;;25.15;;
60352;SDS011;46196;52.970;6.954;2022-09-24T06:27:11;34.97;;;25.05;;
60352;SDS011;46196;52.970;6.954;2022-09-24T06:29:37;32.90;;;24.48;;
60352;SDS011;46196;52.970;6.954;2022-09-24T06:32:02;33.88;;;24.95;;
60352;SDS011;46196;52.970;6.954;2022-09-24T06:34:28;36.22;;;25.70;;
60352;SDS011;46196;52.970;6.954;2022-09-24T06:36:54;34.72;;;25.63;;
60352;SDS011;46196;52.970;6.954;2022-09-24T06:39:24;36.22;;;24.98;;
60352;SDS011;46196;52.970;6.954;2022-09-24T06:41:51;35.78;;;27.10;;
60352;SDS011;46196;52.970;6.954;2022-09-24T06:44:17;35.20;;;25.15;;
60352;SDS011;46196;52.970;6.954;2022-09-24T06:46:43;35.70;;;25.55;;
60352;SDS011;46196;52.970;6.954;2022-09-24T06:49:09;36.70;;;26.98;;
60352;SDS011;46196;52.970;6.954;2022-09-24T06:51:36;34.10;;;24.02;;
60352;SDS011;46196;52.970;6.954;2022-09-24T06:54:02;37.67;;;25.92;;
60352;SDS011;46196;52.970;6.954;2022-09-24T06:56:28;39.00;;;27.05;;
60352;SDS011;46196;52.970;6.954;2022-09-24T06:58:55;36.25;;;25.20;;
60352;SDS011;46196;52.970;6.954;2022-09-24T07:01:20;35.85;;;23.33;;
60352;SDS011;46196;52.970;6.954;2022-09-24T07:03:46;39.08;;;26.40;;
60352;SDS011;46196;52.970;6.954;2022-09-24T07:06:12;39.42;;;25.27;;
60352;SDS011;46196;52.970;6.954;2022-09-24T07:08:38;38.33;;;26.23;;
60352;SDS011;46196;52.970;6.954;2022-09-24T07:11:04;39.08;;;24.02;;
60352;SDS011;46196;52.970;6.954;2022-09-24T07:13:29;37.60;;;26.52;;
60352;SDS011;46196;52.970;6.954;2022-09-24T07:15:55;41.10;;;26.13;;
60352;SDS011;46196;52.970;6.954;2022-09-24T07:18:21;37.95;;;27.17;;
60352;SDS011;46196;52.970;6.954;2022-09-24T07:20:51;33.30;;;24.58;;
60352;SDS011;46196;52.970;6.954;2022-09-24T07:23:20;36.63;;;25.40;;
60352;SDS011;46196;52.970;6.954;2022-09-24T07:25:47;33.00;;;24.33;;
60352;SDS011;46196;52.970;6.954;2022-09-24T07:28:14;33.63;;;22.95;;
60352;SDS011;46196;52.970;6.954;2022-09-24T07:30:40;31.45;;;23.48;;
60352;SDS011;46196;52.970;6.954;2022-09-24T07:33:06;30.02;;;21.38;;
60352;SDS011;46196;52.970;6.954;2022-09-24T07:35:32;24.60;;;17.48;;
60352;SDS011;46196;52.970;6.954;2022-09-24T07:38:02;33.88;;;22.95;;
60352;SDS011;46196;52.970;6.954;2022-09-24T07:40:29;30.92;;;22.27;;
60352;SDS011;46196;52.970;6.954;2022-09-24T07:42:56;27.67;;;21.35;;
60352;SDS011;46196;52.970;6.954;2022-09-24T07:45:23;28.52;;;22.23;;
60352;SDS011;46196;52.970;6.954;2022-09-24T07:47:59;27.67;;;20.52;;
60352;SDS011;46196;52.970;6.954;2022-09-24T07:50:27;29.95;;;22.17;;
60352;SDS011;46196;52.970;6.954;2022-09-24T07:52:54;30.88;;;21.08;;
60352;SDS011;46196;52.970;6.954;2022-09-24T07:55:21;29.48;;;21.33;;
60352;SDS011;46196;52.970;6.954;2022-09-24T07:57:51;26.58;;;19.45;;
60352;SDS011;46196;52.970;6.954;2022-09-24T08:00:19;26.92;;;19.90;;
60352;SDS011;46196;52.970;6.954;2022-09-24T08:02:46;24.65;;;17.67;;
60352;SDS011;46196;52.970;6.954;2022-09-24T08:05:12;22.58;;;16.50;;
60352;SDS011;46196;52.970;6.954;2022-09-24T08:07:39;26.77;;;18.45;;
60352;SDS011;46196;52.970;6.954;2022-09-24T08:10:06;25.00;;;17.25;;
60352;SDS011;46196;52.970;6.954;2022-09-24T08:12:32;20.17;;;14.10;;
60352;SDS011;46196;52.970;6.954;2022-09-24T08:14:58;17.17;;;12.07;;
60352;SDS011;46196;52.970;6.954;2022-09-24T08:17:24;19.70;;;12.55;;
60352;SDS011;46196;52.970;6.954;2022-09-24T08:19:52;16.25;;;10.35;;
60352;SDS011;46196;52.970;6.954;2022-09-24T08:22:21;13.70;;;10.43;;
60352;SDS011;46196;52.970;6.954;2022-09-24T08:24:47;15.95;;;9.77;;
60352;SDS011;46196;52.970;6.954;2022-09-24T08:27:14;13.35;;;8.52;;
60352;SDS011;46196;52.970;6.954;2022-09-24T08:29:41;11.45;;;7.70;;
60352;SDS011;46196;52.970;6.954;2022-09-24T08:32:07;9.23;;;4.40;;
60352;SDS011;46196;52.970;6.954;2022-09-24T08:34:33;10.05;;;4.43;;
60352;SDS011;46196;52.970;6.954;2022-09-24T08:37:03;10.27;;;4.45;;
60352;SDS011;46196;52.970;6.954;2022-09-24T08:39:30;7.32;;;3.85;;
60352;SDS011;46196;52.970;6.954;2022-09-24T08:42:01;7.00;;;3.33;;
60352;SDS011;46196;52.970;6.954;2022-09-24T08:44:39;6.85;;;4.10;;
60352;SDS011;46196;52.970;6.954;2022-09-24T08:47:35;6.45;;;2.97;;
60352;SDS011;46196;52.970;6.954;2022-09-24T08:55:38;6.85;;;2.90;;
60352;SDS011;46196;52.970;6.954;2022-09-24T08:58:17;6.97;;;3.03;;
60352;SDS011;46196;52.970;6.954;2022-09-24T09:03:48;7.55;;;2.60;;
60352;SDS011;46196;52.970;6.954;2022-09-24T09:09:24;7.05;;;2.50;;
60352;SDS011;46196;52.970;6.954;2022-09-24T09:11:59;7.50;;;2.67;;
60352;SDS011;46196;52.970;6.954;2022-09-24T09:14:48;9.30;;;2.65;;
60352;SDS011;46196;52.970;6.954;2022-09-24T09:20:16;7.82;;;2.80;;
60352;SDS011;46196;52.970;6.954;2022-09-24T09:22:44;8.00;;;2.97;;
60352;SDS011;46196;52.970;6.954;2022-09-24T09:25:22;7.15;;;2.72;;
60352;SDS011;46196;52.970;6.954;2022-09-24T09:30:23;11.50;;;2.97;;
60352;SDS011;46196;52.970;6.954;2022-09-24T09:35:46;6.43;;;2.90;;
60352;SDS011;46196;52.970;6.954;2022-09-24T09:39:00;8.60;;;2.38;;
60352;SDS011;46196;52.970;6.954;2022-09-24T09:44:10;7.47;;;2.72;;
60352;SDS011;46196;52.970;6.954;2022-09-24T09:46:49;7.68;;;2.67;;
60352;SDS011;46196;52.970;6.954;2022-09-24T09:49:31;6.72;;;2.65;;
60352;SDS011;46196;52.970;6.954;2022-09-24T09:52:00;7.28;;;3.15;;
60352;SDS011;46196;52.970;6.954;2022-09-24T09:54:38;9.80;;;3.10;;
60352;SDS011;46196;52.970;6.954;2022-09-24T09:57:05;13.07;;;2.67;;
60352;SDS011;46196;52.970;6.954;2022-09-24T09:59:36;10.23;;;2.63;;
60352;SDS011;46196;52.970;6.954;2022-09-24T10:02:08;5.88;;;2.30;;
60352;SDS011;46196;52.970;6.954;2022-09-24T10:07:08;5.68;;;2.05;;
60352;SDS011;46196;52.970;6.954;2022-09-24T10:09:36;5.53;;;2.20;;
60352;SDS011;46196;52.970;6.954;2022-09-24T10:12:16;6.90;;;2.55;;
60352;SDS011;46196;52.970;6.954;2022-09-24T10:14:56;8.52;;;2.75;;
60352;SDS011;46196;52.970;6.954;2022-09-24T10:17:22;6.78;;;2.65;;
60352;SDS011;46196;52.970;6.954;2022-09-24T10:22:32;8.73;;;3.22;;
60352;SDS011;46196;52.970;6.954;2022-09-24T10:24:59;5.35;;;2.50;;
60352;SDS011;46196;52.970;6.954;2022-09-24T10:30:03;5.72;;;2.28;;
60352;SDS011;46196;52.970;6.954;2022-09-24T10:32:59;7.18;;;2.95;;
60352;SDS011;46196;52.970;6.954;2022-09-24T10:35:28;6.55;;;2.72;;
60352;SDS011;46196;52.970;6.954;2022-09-24T10:37:58;7.32;;;2.55;;
60352;SDS011;46196;52.970;6.954;2022-09-24T10:40:25;8.65;;;2.67;;
60352;SDS011;46196;52.970;6.954;2022-09-24T10:43:02;5.75;;;2.38;;
60352;SDS011;46196;52.970;6.954;2022-09-24T10:48:25;6.03;;;2.58;;
60352;SDS011;46196;52.970;6.954;2022-09-24T10:57:02;6.03;;;2.10;;
60352;SDS011;46196;52.970;6.954;2022-09-24T11:05:36;9.80;;;2.70;;
60352;SDS011;46196;52.970;6.954;2022-09-24T11:41:04;4.80;;;2.00;;
60352;SDS011;46196;52.970;6.954;2022-09-24T11:57:15;6.50;;;2.10;;
60352;SDS011;46196;52.970;6.954;2022-09-24T11:59:49;5.03;;;1.88;;
60352;SDS011;46196;52.970;6.954;2022-09-24T12:02:22;7.57;;;2.37;;
60352;SDS011;46196;52.970;6.954;2022-09-24T12:05:25;4.90;;;2.00;;
60352;SDS011;46196;52.970;6.954;2022-09-24T12:07:54;3.97;;;1.77;;
60352;SDS011;46196;52.970;6.954;2022-09-24T12:10:30;9.73;;;2.17;;
60352;SDS011;46196;52.970;6.954;2022-09-24T12:13:23;7.45;;;2.15;;
60352;SDS011;46196;52.970;6.954;2022-09-24T12:15:55;2.78;;;1.95;;
60352;SDS011;46196;52.970;6.954;2022-09-24T12:18:26;4.85;;;1.90;;
60352;SDS011;46196;52.970;6.954;2022-09-24T12:23:36;4.45;;;2.20;;
60352;SDS011;46196;52.970;6.954;2022-09-24T12:26:05;6.75;;;2.67;;
60352;SDS011;46196;52.970;6.954;2022-09-24T12:28:39;5.32;;;2.20;;
60352;SDS011;46196;52.970;6.954;2022-09-24T12:31:41;5.28;;;2.13;;
60352;SDS011;46196;52.970;6.954;2022-09-24T12:37:08;5.97;;;2.40;;
60352;SDS011;46196;52.970;6.954;2022-09-24T12:39:52;5.00;;;2.47;;
60352;SDS011;46196;52.970;6.954;2022-09-24T12:42:29;6.30;;;2.50;;
60352;SDS011;46196;52.970;6.954;2022-09-24T12:45:00;5.20;;;2.47;;
60352;SDS011;46196;52.970;6.954;2022-09-24T12:47:29;5.32;;;2.40;;
60352;SDS011;46196;52.970;6.954;2022-09-24T12:49:59;3.53;;;2.30;;
60352;SDS011;46196;52.970;6.954;2022-09-24T12:52:31;7.43;;;2.85;;
60352;SDS011;46196;52.970;6.954;2022-09-24T12:55:03;7.47;;;2.50;;
60352;SDS011;46196;52.970;6.954;2022-09-24T12:57:40;4.47;;;2.40;;
60352;SDS011;46196;52.970;6.954;2022-09-24T13:03:32;3.60;;;2.15;;
60352;SDS011;46196;52.970;6.954;2022-09-24T13:06:00;6.07;;;2.42;;
60352;SDS011;46196;52.970;6.954;2022-09-24T13:08:37;6.88;;;2.47;;
60352;SDS011;46196;52.970;6.954;2022-09-24T13:11:25;3.90;;;2.37;;
60352;SDS011;46196;52.970;6.954;2022-09-24T13:16:28;7.82;;;3.13;;
60352;SDS011;46196;52.970;6.954;2022-09-24T13:18:55;4.28;;;2.42;;
60352;SDS011;46196;52.970;6.954;2022-09-24T13:21:24;4.63;;;2.90;;
60352;SDS011;46196;52.970;6.954;2022-09-24T13:23:52;5.63;;;3.15;;
60352;SDS011;46196;52.970;6.954;2022-09-24T13:26:26;6.90;;;2.67;;
60352;SDS011;46196;52.970;6.954;2022-09-24T13:28:55;7.32;;;3.00;;
60352;SDS011;46196;52.970;6.954;2022-09-24T13:31:34;6.32;;;3.20;;
60352;SDS011;46196;52.970;6.954;2022-09-24T13:36:39;7.43;;;3.70;;
60352;SDS011;46196;52.970;6.954;2022-09-24T13:41:58;7.25;;;3.90;;
60352;SDS011;46196;52.970;6.954;2022-09-24T13:44:42;6.30;;;3.47;;
60352;SDS011;46196;52.970;6.954;2022-09-24T13:52:54;7.00;;;3.90;;
60352;SDS011;46196;52.970;6.954;2022-09-24T13:55:35;5.57;;;3.83;;
60352;SDS011;46196;52.970;6.954;2022-09-24T13:58:03;9.57;;;4.07;;
60352;SDS011;46196;52.970;6.954;2022-09-24T14:00:29;7.65;;;3.75;;
60352;SDS011;46196;52.970;6.954;2022-09-24T14:05:45;5.22;;;3.42;;
60352;SDS011;46196;52.970;6.954;2022-09-24T14:08:13;8.13;;;3.90;;
60352;SDS011;46196;52.970;6.954;2022-09-24T14:10:40;6.70;;;3.80;;
60352;SDS011;46196;52.970;6.954;2022-09-24T14:13:17;7.20;;;4.13;;
60352;SDS011;46196;52.970;6.954;2022-09-24T14:16:09;6.07;;;3.95;;
60352;SDS011;46196;52.970;6.954;2022-09-24T14:18:37;7.10;;;3.83;;
60352;SDS011;46196;52.970;6.954;2022-09-24T14:21:09;8.80;;;4.15;;
60352;SDS011;46196;52.970;6.954;2022-09-24T14:27:00;10.98;;;4.20;;
60352;SDS011;46196;52.970;6.954;2022-09-24T14:29:10;6.97;;;4.00;;
60352;SDS011;46196;52.970;6.954;2022-09-24T14:31:49;9.23;;;4.18;;
60352;SDS011;46196;52.970;6.954;2022-09-24T14:34:25;7.00;;;3.60;;
60352;SDS011;46196;52.970;6.954;2022-09-24T14:36:53;5.70;;;3.97;;
60352;SDS011;46196;52.970;6.954;2022-09-24T14:39:21;13.82;;;4.53;;
60352;SDS011;46196;52.970;6.954;2022-09-24T14:41:50;9.30;;;4.53;;
60352;SDS011;46196;52.970;6.954;2022-09-24T14:46:51;8.45;;;4.28;;
60352;SDS011;46196;52.970;6.954;2022-09-24T14:49:20;9.25;;;4.20;;
60352;SDS011;46196;52.970;6.954;2022-09-24T14:52:04;6.90;;;4.55;;
60352;SDS011;46196;52.970;6.954;2022-09-24T14:54:47;7.80;;;4.25;;
60352;SDS011;46196;52.970;6.954;2022-09-24T14:59:41;8.93;;;3.83;;
60352;SDS011;46196;52.970;6.954;2022-09-24T15:04:49;9.65;;;4.03;;
60352;SDS011;46196;52.970;6.954;2022-09-24T15:07:25;9.10;;;4.30;;
60352;SDS011;46196;52.970;6.954;2022-09-24T15:09:54;11.50;;;4.75;;
60352;SDS011;46196;52.970;6.954;2022-09-24T15:12:26;7.25;;;4.10;;
60352;SDS011;46196;52.970;6.954;2022-09-24T15:14:57;10.02;;;4.93;;
60352;SDS011;46196;52.970;6.954;2022-09-24T15:17:44;7.35;;;3.80;;
60352;SDS011;46196;52.970;6.954;2022-09-24T15:20:11;9.20;;;4.22;;
60352;SDS011;46196;52.970;6.954;2022-09-24T15:22:37;8.68;;;3.88;;
60352;SDS011;46196;52.970;6.954;2022-09-24T15:25:03;7.32;;;4.07;;
60352;SDS011;46196;52.970;6.954;2022-09-24T15:27:31;5.78;;;3.85;;
60352;SDS011;46196;52.970;6.954;2022-09-24T15:30:01;8.35;;;4.20;;
60352;SDS011;46196;52.970;6.954;2022-09-24T15:32:29;6.35;;;3.60;;
60352;SDS011;46196;52.970;6.954;2022-09-24T15:34:56;8.55;;;4.22;;
60352;SDS011;46196;52.970;6.954;2022-09-24T15:37:23;6.78;;;3.80;;
60352;SDS011;46196;52.970;6.954;2022-09-24T15:39:50;7.35;;;4.40;;
60352;SDS011;46196;52.970;6.954;2022-09-24T15:42:17;7.30;;;3.80;;
60352;SDS011;46196;52.970;6.954;2022-09-24T15:44:45;8.88;;;3.72;;
60352;SDS011;46196;52.970;6.954;2022-09-24T15:47:11;6.97;;;4.10;;
60352;SDS011;46196;52.970;6.954;2022-09-24T15:49:38;5.70;;;3.72;;
60352;SDS011;46196;52.970;6.954;2022-09-24T15:52:25;10.52;;;4.15;;
60352;SDS011;46196;52.970;6.954;2022-09-24T15:54:59;6.10;;;3.72;;
60352;SDS011;46196;52.970;6.954;2022-09-24T15:57:29;6.75;;;3.88;;
60352;SDS011;46196;52.970;6.954;2022-09-24T15:59:55;7.80;;;3.90;;
60352;SDS011;46196;52.970;6.954;2022-09-24T16:02:28;6.72;;;3.50;;
60352;SDS011;46196;52.970;6.954;2022-09-24T16:04:56;6.43;;;3.30;;
60352;SDS011;46196;52.970;6.954;2022-09-24T16:07:23;6.70;;;3.30;;
60352;SDS011;46196;52.970;6.954;2022-09-24T16:09:49;6.15;;;3.30;;
60352;SDS011;46196;52.970;6.954;2022-09-24T16:12:16;6.82;;;3.13;;
60352;SDS011;46196;52.970;6.954;2022-09-24T16:14:42;4.70;;;2.60;;
60352;SDS011;46196;52.970;6.954;2022-09-24T16:17:09;5.75;;;2.78;;
60352;SDS011;46196;52.970;6.954;2022-09-24T16:19:35;5.15;;;2.70;;
60352;SDS011;46196;52.970;6.954;2022-09-24T16:22:01;6.05;;;2.72;;
60352;SDS011;46196;52.970;6.954;2022-09-24T16:24:30;5.53;;;2.63;;
60352;SDS011;46196;52.970;6.954;2022-09-24T16:26:57;6.40;;;2.40;;
60352;SDS011;46196;52.970;6.954;2022-09-24T16:29:23;5.97;;;2.25;;
60352;SDS011;46196;52.970;6.954;2022-09-24T16:31:49;7.07;;;2.75;;
60352;SDS011;46196;52.970;6.954;2022-09-24T16:34:15;3.95;;;2.38;;
60352;SDS011;46196;52.970;6.954;2022-09-24T16:36:41;5.30;;;2.47;;
60352;SDS011;46196;52.970;6.954;2022-09-24T16:39:06;7.15;;;2.50;;
60352;SDS011;46196;52.970;6.954;2022-09-24T16:41:32;6.40;;;2.42;;
60352;SDS011;46196;52.970;6.954;2022-09-24T16:44:01;3.92;;;2.10;;
60352;SDS011;46196;52.970;6.954;2022-09-24T16:46:28;5.60;;;2.35;;
60352;SDS011;46196;52.970;6.954;2022-09-24T16:48:54;4.43;;;2.40;;
60352;SDS011;46196;52.970;6.954;2022-09-24T16:51:19;4.38;;;2.10;;
60352;SDS011;46196;52.970;6.954;2022-09-24T16:53:45;4.32;;;2.28;;
60352;SDS011;46196;52.970;6.954;2022-09-24T16:56:13;6.50;;;2.20;;
60352;SDS011;46196;52.970;6.954;2022-09-24T16:58:41;4.65;;;2.00;;
60352;SDS011;46196;52.970;6.954;2022-09-24T17:01:09;3.70;;;1.90;;
60352;SDS011;46196;52.970;6.954;2022-09-24T17:03:36;3.15;;;1.90;;
60352;SDS011;46196;52.970;6.954;2022-09-24T17:06:03;5.22;;;2.10;;
60352;SDS011;46196;52.970;6.954;2022-09-24T17:08:30;4.22;;;2.10;;
60352;SDS011;46196;52.970;6.954;2022-09-24T17:11:15;4.75;;;2.30;;
60352;SDS011;46196;52.970;6.954;2022-09-24T17:13:40;3.92;;;2.13;;
60352;SDS011;46196;52.970;6.954;2022-09-24T17:16:07;5.32;;;2.13;;
60352;SDS011;46196;52.970;6.954;2022-09-24T17:18:33;4.22;;;1.80;;
60352;SDS011;46196;52.970;6.954;2022-09-24T17:21:09;5.10;;;1.98;;
60352;SDS011;46196;52.970;6.954;2022-09-24T17:23:36;5.07;;;2.10;;